createdAt,value
2022-09-15T00:00:18.336Z,97839.60
2022-09-15T00:03:15.856Z,97839.40
2022-09-15T00:06:13.281Z,97833.00
2022-09-15T00:09:10.721Z,97831.00
2022-09-15T00:12:08.156Z,97824.20
2022-09-15T00:15:05.573Z,97828.20
2022-09-15T00:18:03.406Z,97827.20
2022-09-15T00:21:00.839Z,97824.00
2022-09-15T00:23:58.256Z,97823.20
2022-09-15T00:26:56.905Z,97822.80
2022-09-15T00:29:54.326Z,97822.20
2022-09-15T00:32:51.729Z,97822.20
2022-09-15T00:35:49.146Z,97823.00
2022-09-15T00:38:46.589Z,97821.40
2022-09-15T00:41:44.014Z,97823.80
2022-09-15T00:44:41.460Z,97830.60
2022-09-15T00:47:38.912Z,97824.60
2022-09-15T00:50:36.341Z,97828.00
2022-09-15T00:53:33.789Z,97839.00
2022-09-15T00:56:31.217Z,97847.00
2022-09-15T00:59:44.061Z,97845.00
2022-09-15T01:02:42.408Z,97839.40
2022-09-15T01:05:39.859Z,97838.80
2022-09-15T01:08:37.294Z,97834.20
2022-09-15T01:11:34.713Z,97832.80
2022-09-15T01:14:32.114Z,97835.60
2022-09-15T01:17:29.466Z,97846.20
2022-09-15T01:20:26.825Z,97846.00
2022-09-15T01:23:24.209Z,97842.80
2022-09-15T01:26:21.566Z,97829.20
2022-09-15T01:29:21.261Z,97813.60
2022-09-15T01:32:36.748Z,97809.80
2022-09-15T01:35:34.480Z,97823.80
2022-09-15T01:38:31.863Z,97831.80
2022-09-15T01:41:29.303Z,97823.60
2022-09-15T01:44:26.730Z,97818.00
2022-09-15T01:47:24.151Z,97819.60
2022-09-15T01:50:21.586Z,97819.40
2022-09-15T01:53:19.084Z,97809.80
2022-09-15T01:56:16.501Z,97805.20
2022-09-15T01:59:13.958Z,97800.20
2022-09-15T02:02:12.630Z,97800.80
2022-09-15T02:05:10.188Z,97799.80
2022-09-15T02:08:08.911Z,97796.40
2022-09-15T02:11:06.330Z,97791.60
2022-09-15T02:14:04.203Z,97785.80
2022-09-15T02:17:03.125Z,97785.20
2022-09-15T02:20:00.558Z,97777.00
2022-09-15T02:22:58.365Z,97772.80
2022-09-15T02:25:56.117Z,97782.00
2022-09-15T02:28:53.641Z,97781.40
2022-09-15T02:31:52.488Z,97785.60
2022-09-15T02:34:51.589Z,97788.40
2022-09-15T02:37:49.088Z,97788.00
2022-09-15T02:40:46.539Z,97788.20
2022-09-15T02:43:43.981Z,97783.00
2022-09-15T02:46:41.413Z,97780.00
2022-09-15T02:49:38.896Z,97779.40
2022-09-15T02:52:36.292Z,97781.60
2022-09-15T02:55:33.708Z,97784.60
2022-09-15T02:58:31.137Z,97785.20
2022-09-15T03:01:30.269Z,97794.00
2022-09-15T03:04:27.713Z,97789.80
2022-09-15T03:07:25.157Z,97791.60
2022-09-15T03:10:22.582Z,97798.60
2022-09-15T03:13:20.011Z,97800.20
2022-09-15T03:16:17.543Z,97796.80
2022-09-15T03:19:14.985Z,97791.80
2022-09-15T03:22:12.453Z,97790.20
2022-09-15T03:25:10.717Z,97792.00
2022-09-15T03:28:08.813Z,97790.00
2022-09-15T03:31:06.352Z,97789.80
2022-09-15T03:34:03.881Z,97789.40
2022-09-15T03:37:01.302Z,97792.00
2022-09-15T03:39:58.826Z,97795.60
2022-09-15T03:42:56.357Z,97797.60
2022-09-15T03:45:53.853Z,97802.60
2022-09-15T03:48:51.298Z,97806.80
2022-09-15T03:51:48.798Z,97805.80
2022-09-15T03:54:46.191Z,97803.20
2022-09-15T03:57:43.606Z,97801.40
2022-09-15T04:00:41.156Z,97804.00
2022-09-15T04:03:44.152Z,97797.60
2022-09-15T04:06:44.076Z,97794.20
2022-09-15T04:09:42.024Z,97799.60
2022-09-15T04:12:39.478Z,97803.40
2022-09-15T04:15:36.904Z,97804.20
2022-09-15T04:18:34.363Z,97801.80
2022-09-15T04:21:32.711Z,97802.80
2022-09-15T04:24:30.150Z,97811.80
2022-09-15T04:27:27.813Z,97815.20
2022-09-15T04:30:25.285Z,97815.40
2022-09-15T04:33:22.753Z,97819.00
2022-09-15T04:36:21.202Z,97811.60
2022-09-15T04:39:19.797Z,97802.40
2022-09-15T04:42:17.212Z,97797.20
2022-09-15T04:45:14.641Z,97799.60
2022-09-15T04:48:12.078Z,97802.20
2022-09-15T04:51:09.485Z,97792.00
2022-09-15T04:54:06.914Z,97791.40
2022-09-15T04:57:04.366Z,97787.60
2022-09-15T05:00:04.591Z,97779.80
2022-09-15T05:03:02.027Z,97770.00
2022-09-15T05:05:59.545Z,97768.20
2022-09-15T05:08:57.000Z,97771.80
2022-09-15T05:11:54.526Z,97775.80
2022-09-15T05:14:51.972Z,97789.80
2022-09-15T05:17:49.943Z,97790.40
2022-09-15T05:20:47.402Z,97787.40
2022-09-15T05:23:44.934Z,97794.80
2022-09-15T05:26:42.871Z,97804.40
2022-09-15T05:29:40.317Z,97806.80
2022-09-15T05:32:37.755Z,97813.20
2022-09-15T05:35:35.207Z,97815.80
2022-09-15T05:38:32.654Z,97826.80
2022-09-15T05:41:30.114Z,97831.60
2022-09-15T05:44:27.558Z,97839.60
2022-09-15T05:47:24.967Z,97834.20
2022-09-15T05:50:22.427Z,97828.00
2022-09-15T05:53:19.858Z,97829.60
2022-09-15T05:56:17.295Z,97829.00
2022-09-15T05:59:14.737Z,97821.00
2022-09-15T06:02:12.236Z,97839.20
2022-09-15T06:05:09.685Z,97843.80
2022-09-15T06:08:07.103Z,97844.60
2022-09-15T06:11:04.528Z,97848.20
2022-09-15T06:14:03.321Z,97848.60
2022-09-15T06:17:00.930Z,97854.60
2022-09-15T06:19:59.346Z,97849.60
2022-09-15T06:22:57.125Z,97845.60
2022-09-15T06:25:54.592Z,97847.00
2022-09-15T06:28:52.013Z,97852.60
2022-09-15T06:31:49.502Z,97860.80
2022-09-15T06:34:46.965Z,97872.00
2022-09-15T06:37:44.531Z,97872.80
2022-09-15T06:40:41.998Z,97867.00
2022-09-15T06:43:39.416Z,97869.00
2022-09-15T06:46:36.936Z,97874.20
2022-09-15T06:49:34.404Z,97883.80
2022-09-15T06:52:31.836Z,97884.60
2022-09-15T06:55:29.236Z,97881.80
2022-09-15T06:58:26.673Z,97893.40
2022-09-15T07:01:24.186Z,97901.40
2022-09-15T07:04:21.952Z,97908.60
2022-09-15T07:07:19.394Z,97916.20
2022-09-15T07:10:16.825Z,97919.60
2022-09-15T07:13:14.251Z,97913.20
2022-09-15T07:16:11.692Z,97903.80
2022-09-15T07:19:09.531Z,97893.40
2022-09-15T07:22:06.969Z,97890.00
2022-09-15T07:25:04.399Z,97890.00
2022-09-15T07:28:02.354Z,97890.00
2022-09-15T07:30:59.852Z,97891.40
2022-09-15T07:33:57.272Z,97885.40
2022-09-15T07:36:54.702Z,97880.60
2022-09-15T07:39:52.171Z,97881.40
2022-09-15T07:42:49.642Z,97876.40
2022-09-15T07:45:47.213Z,97878.80
2022-09-15T07:48:44.723Z,97876.60
2022-09-15T07:51:43.147Z,97872.40
2022-09-15T07:54:40.583Z,97879.40
2022-09-15T07:57:38.083Z,97876.20
2022-09-15T08:00:36.062Z,97876.20
2022-09-15T08:03:33.537Z,97883.40
2022-09-15T08:06:30.976Z,97884.60
2022-09-15T08:09:28.424Z,97897.00
2022-09-15T08:12:26.071Z,97900.40
2022-09-15T08:15:23.476Z,97904.60
2022-09-15T08:18:20.906Z,97903.80
2022-09-15T08:21:18.344Z,97914.00
2022-09-15T08:24:16.811Z,97923.60
2022-09-15T08:27:14.235Z,97925.80
2022-09-15T08:30:11.652Z,97916.40
2022-09-15T08:33:09.102Z,97908.40
2022-09-15T08:36:06.623Z,97902.00
2022-09-15T08:39:04.101Z,97885.00
2022-09-15T08:42:01.586Z,97889.40
2022-09-15T08:44:59.014Z,97876.60
2022-09-15T08:47:58.742Z,97870.00
2022-09-15T08:50:57.345Z,97866.20
2022-09-15T08:53:54.790Z,97871.80
2022-09-15T08:56:52.202Z,97871.60
2022-09-15T08:59:49.640Z,97877.40
2022-09-15T09:02:47.152Z,97874.60
2022-09-15T09:05:45.742Z,97876.60
2022-09-15T09:08:43.206Z,97876.40
2022-09-15T09:11:40.629Z,97873.20
2022-09-15T09:14:38.035Z,97879.60
2022-09-15T09:17:35.477Z,97872.20
2022-09-15T09:20:33.555Z,97870.80
2022-09-15T09:23:31.247Z,97870.20
2022-09-15T09:26:28.740Z,97877.60
2022-09-15T09:29:28.125Z,97862.00
2022-09-15T09:32:25.605Z,97864.80
2022-09-15T09:35:23.123Z,97871.40
2022-09-15T09:38:20.574Z,97872.80
2022-09-15T09:41:18.017Z,97866.60
2022-09-15T09:44:15.446Z,97861.60
2022-09-15T09:47:13.584Z,97857.00
2022-09-15T09:50:11.045Z,97850.60
2022-09-15T09:53:08.512Z,97846.60
2022-09-15T09:56:05.968Z,97833.40
2022-09-15T09:59:03.818Z,97831.60
2022-09-15T10:02:01.247Z,97826.20
2022-09-15T10:04:58.701Z,97826.80
2022-09-15T10:07:56.191Z,97823.20
2022-09-15T10:10:53.619Z,97835.00
2022-09-15T10:13:51.056Z,97832.80
2022-09-15T10:16:48.548Z,97838.20
2022-09-15T10:19:46.022Z,97835.20
2022-09-15T10:22:43.427Z,97834.60
2022-09-15T10:25:59.463Z,97834.60
2022-09-15T10:28:57.303Z,97831.60
2022-09-15T10:31:54.754Z,97835.60
2022-09-15T10:34:52.307Z,97846.40
2022-09-15T10:37:50.121Z,97849.20
2022-09-15T10:40:47.547Z,97843.00
2022-09-15T10:43:44.982Z,97851.00
2022-09-15T10:46:42.405Z,97852.00
2022-09-15T10:49:39.848Z,97848.20
2022-09-15T10:52:37.263Z,97848.40
2022-09-15T10:55:51.503Z,97849.00
2022-09-15T10:58:50.940Z,97844.80
2022-09-15T11:01:48.357Z,97843.60
2022-09-15T11:04:45.821Z,97834.60
2022-09-15T11:07:43.281Z,97839.60
2022-09-15T11:10:40.712Z,97844.00
2022-09-15T11:13:38.218Z,97845.00
2022-09-15T11:16:35.700Z,97839.00
2022-09-15T11:19:33.187Z,97835.60
2022-09-15T11:22:30.613Z,97835.00
2022-09-15T11:25:28.197Z,97829.80
2022-09-15T11:28:25.698Z,97831.20
2022-09-15T11:31:23.194Z,97826.80
2022-09-15T11:34:21.001Z,97819.40
2022-09-15T11:37:18.438Z,97812.40
2022-09-15T11:40:16.023Z,97816.20
2022-09-15T11:43:13.495Z,97813.40
2022-09-15T11:46:10.983Z,97811.00
2022-09-15T11:49:08.890Z,97810.60
2022-09-15T11:52:06.374Z,97810.80
2022-09-15T11:55:04.056Z,97823.20
2022-09-15T11:58:01.513Z,97818.80
2022-09-15T12:00:58.919Z,97824.00
2022-09-15T12:03:56.381Z,97825.80
2022-09-15T12:06:54.238Z,97822.60
2022-09-15T12:09:51.717Z,97820.80
2022-09-15T12:12:49.147Z,97818.00
2022-09-15T12:15:46.634Z,97816.80
2022-09-15T12:18:46.678Z,97811.80
2022-09-15T12:21:44.691Z,97807.40
2022-09-15T12:24:44.042Z,97806.60
2022-09-15T12:27:41.486Z,97802.80
2022-09-15T12:30:39.108Z,97797.60
2022-09-15T12:33:36.542Z,97795.60
2022-09-15T12:36:34.061Z,97790.40
2022-09-15T12:39:31.583Z,97786.00
2022-09-15T12:42:29.927Z,97779.60
2022-09-15T12:45:27.362Z,97767.20
2022-09-15T12:48:24.812Z,97769.00
2022-09-15T12:51:22.753Z,97760.80
2022-09-15T12:54:20.496Z,97759.80
2022-09-15T12:57:17.936Z,97751.00
2022-09-15T13:00:15.384Z,97741.60
2022-09-15T13:03:12.878Z,97742.20
2022-09-15T13:06:10.369Z,97738.20
2022-09-15T13:09:07.839Z,97736.60
2022-09-15T13:12:05.285Z,97738.80
2022-09-15T13:15:04.182Z,97729.00
2022-09-15T13:18:01.635Z,97723.60
2022-09-15T13:20:59.658Z,97721.40
2022-09-15T13:23:57.108Z,97717.60
2022-09-15T13:26:55.788Z,97710.40
2022-09-15T13:29:53.861Z,97705.80
2022-09-15T13:32:52.667Z,97706.20
2022-09-15T13:35:51.056Z,97702.80
2022-09-15T13:38:50.863Z,97698.60
2022-09-15T13:41:48.725Z,97696.00
2022-09-15T13:44:46.148Z,97697.20
2022-09-15T13:47:43.576Z,97696.20
2022-09-15T13:50:41.347Z,97699.80
2022-09-15T13:53:42.797Z,97693.40
2022-09-15T13:56:41.349Z,97691.20
2022-09-15T13:59:39.107Z,97694.80
2022-09-15T14:02:36.768Z,97699.00
2022-09-15T14:05:34.287Z,97701.20
2022-09-15T14:08:32.631Z,97707.40
2022-09-15T14:11:30.392Z,97703.00
2022-09-15T14:14:27.895Z,97693.60
2022-09-15T14:17:25.334Z,97695.00
2022-09-15T14:20:22.778Z,97702.80
2022-09-15T14:23:20.215Z,97710.60
2022-09-15T14:26:18.500Z,97707.80
2022-09-15T14:29:16.253Z,97708.60
2022-09-15T14:32:13.690Z,97709.80
2022-09-15T14:35:13.851Z,97711.40
2022-09-15T14:38:13.524Z,97718.80
2022-09-15T14:41:10.946Z,97724.60
2022-09-15T14:44:08.558Z,97719.20
2022-09-15T14:47:06.456Z,97719.80
2022-09-15T14:50:04.594Z,97714.40
2022-09-15T14:53:02.025Z,97718.40
2022-09-15T14:56:02.150Z,97723.20
2022-09-15T14:59:01.960Z,97721.20
2022-09-15T15:01:59.404Z,97723.60
2022-09-15T15:04:57.637Z,97724.40
2022-09-15T15:07:55.515Z,97728.00
2022-09-15T15:10:52.960Z,97732.60
2022-09-15T15:13:50.423Z,97736.40
2022-09-15T15:16:47.931Z,97748.60
2022-09-15T15:19:45.473Z,97753.80
2022-09-15T15:22:42.902Z,97750.80
2022-09-15T15:25:40.334Z,97760.40
2022-09-15T15:28:37.823Z,97763.60
2022-09-15T15:31:35.320Z,97755.60
2022-09-15T15:34:33.481Z,97756.00
2022-09-15T15:37:31.142Z,97753.00
2022-09-15T15:40:28.777Z,97749.20
2022-09-15T15:43:26.663Z,97741.20
2022-09-15T15:46:24.109Z,97733.00
2022-09-15T15:49:22.304Z,97735.20
2022-09-15T15:52:19.721Z,97758.60
2022-09-15T15:55:17.121Z,97779.20
2022-09-15T15:58:14.550Z,97787.20
2022-09-15T16:01:12.054Z,97794.80
2022-09-15T16:04:11.546Z,97803.20
2022-09-15T16:07:08.993Z,97805.20
2022-09-15T16:10:06.418Z,97808.80
2022-09-15T16:13:03.856Z,97808.60
2022-09-15T16:16:01.403Z,97806.20
2022-09-15T16:18:58.904Z,97806.20
2022-09-15T16:21:56.342Z,97803.60
2022-09-15T16:24:55.285Z,97805.40
2022-09-15T16:27:52.727Z,97818.80
2022-09-15T16:30:50.166Z,97815.20
2022-09-15T16:33:47.594Z,97813.80
2022-09-15T16:36:45.009Z,97814.20
2022-09-15T16:39:42.463Z,97816.00
2022-09-15T16:42:39.905Z,97814.60
2022-09-15T16:45:40.549Z,97814.80
2022-09-15T16:48:38.808Z,97832.20
2022-09-15T16:51:36.325Z,97836.00
2022-09-15T16:54:33.822Z,97839.40
2022-09-15T16:57:31.277Z,97847.80
2022-09-15T17:00:28.804Z,97851.00
2022-09-15T17:03:26.274Z,97851.40
2022-09-15T17:06:23.750Z,97854.80
2022-09-15T17:09:21.437Z,97853.60
2022-09-15T17:12:19.432Z,97856.60
2022-09-15T17:15:16.963Z,97857.80
2022-09-15T17:18:15.535Z,97854.20
2022-09-15T17:21:13.031Z,97857.40
2022-09-15T17:24:10.470Z,97866.80
2022-09-15T17:27:08.233Z,97861.00
2022-09-15T17:30:05.943Z,97860.40
2022-09-15T17:33:03.442Z,97868.60
2022-09-15T17:36:00.941Z,97871.60
2022-09-15T17:38:58.404Z,97864.00
2022-09-15T17:41:55.915Z,97858.00
2022-09-15T17:44:53.460Z,97860.00
2022-09-15T17:47:50.903Z,97866.20
2022-09-15T17:50:48.796Z,97869.60
2022-09-15T17:53:47.225Z,97868.80
2022-09-15T17:56:44.740Z,97867.80
2022-09-15T17:59:42.480Z,97865.80
2022-09-15T18:02:40.275Z,97848.60
2022-09-15T18:05:38.112Z,97840.20
2022-09-15T18:08:36.429Z,97832.80
2022-09-15T18:11:34.321Z,97832.00
2022-09-15T18:14:32.065Z,97825.60
2022-09-15T18:17:29.899Z,97827.20
2022-09-15T18:20:27.378Z,97826.00
2022-09-15T18:23:24.971Z,97831.40
2022-09-15T18:26:26.362Z,97834.80
2022-09-15T18:29:24.825Z,97829.00
2022-09-15T18:32:22.799Z,97824.20
2022-09-15T18:35:20.534Z,97822.00
2022-09-15T18:38:18.271Z,97828.40
2022-09-15T18:41:16.062Z,97830.20
2022-09-15T18:44:13.813Z,97838.80
2022-09-15T18:47:11.355Z,97841.80
2022-09-15T18:50:08.990Z,97842.40
2022-09-15T18:53:06.498Z,97842.80
2022-09-15T18:56:04.245Z,97831.60
2022-09-15T18:59:02.074Z,97826.60
2022-09-15T19:02:00.035Z,97820.00
2022-09-15T19:04:58.018Z,97824.20
2022-09-15T19:07:55.841Z,97841.00
2022-09-15T19:10:54.003Z,97844.00
2022-09-15T19:13:52.235Z,97846.40
2022-09-15T19:16:57.525Z,97853.80
2022-09-15T19:19:56.266Z,97872.00
2022-09-15T19:22:53.969Z,97879.60
2022-09-15T19:25:51.783Z,97884.20
2022-09-15T19:28:49.546Z,97887.40
2022-09-15T19:31:47.504Z,97894.40
2022-09-15T19:34:45.258Z,97896.00
2022-09-15T19:37:42.738Z,97896.80
2022-09-15T19:40:40.706Z,97899.60
2022-09-15T19:43:40.425Z,97900.20
2022-09-15T19:46:38.271Z,97897.20
2022-09-15T19:49:35.775Z,97896.00
2022-09-15T19:52:33.443Z,97897.00
2022-09-15T19:55:30.963Z,97900.20
2022-09-15T19:58:28.410Z,97908.20
2022-09-15T20:01:25.948Z,97898.40
2022-09-15T20:07:38.337Z,97899.80
2022-09-15T20:10:35.716Z,97904.80
2022-09-15T20:13:33.114Z,97913.80
2022-09-15T20:16:30.488Z,97921.80
2022-09-15T20:19:27.844Z,97920.20
2022-09-15T20:22:25.218Z,97920.20
2022-09-15T20:25:24.057Z,97925.20
2022-09-15T20:28:21.466Z,97932.40
2022-09-15T20:31:19.221Z,97939.20
2022-09-15T20:34:16.614Z,97930.80
2022-09-15T20:37:14.038Z,97934.60
2022-09-15T20:40:11.518Z,97933.80
2022-09-15T20:43:08.986Z,97936.40
2022-09-15T20:46:06.730Z,97948.20
2022-09-15T20:49:04.432Z,97952.60
2022-09-15T20:52:01.856Z,97956.80
2022-09-15T20:54:59.317Z,97963.40
2022-09-15T20:57:56.742Z,97966.40
2022-09-15T21:00:54.206Z,97983.20
2022-09-15T21:03:51.691Z,97986.80
2022-09-15T21:06:49.194Z,97991.00
2022-09-15T21:09:46.617Z,98001.40
2022-09-15T21:12:44.061Z,98007.60
2022-09-15T21:15:41.512Z,98005.00
2022-09-15T21:18:39.366Z,98014.00
2022-09-15T21:21:36.800Z,98028.20
2022-09-15T21:24:34.235Z,98037.20
2022-09-15T21:27:31.966Z,98043.40
2022-09-15T21:30:29.415Z,98058.20
2022-09-15T21:33:27.551Z,98069.40
2022-09-15T21:36:24.990Z,98076.60
2022-09-15T21:39:22.473Z,98075.40
2022-09-15T21:42:19.917Z,98093.20
2022-09-15T21:45:18.627Z,98099.20
2022-09-15T21:48:16.862Z,98095.40
2022-09-15T21:51:15.425Z,98104.80
2022-09-15T21:54:13.754Z,98115.40
2022-09-15T21:57:11.193Z,98113.80
2022-09-15T22:00:08.978Z,98099.20
2022-09-15T22:03:06.393Z,98098.00
2022-09-15T22:06:03.829Z,98100.60
2022-09-15T22:09:01.275Z,98096.20
2022-09-15T22:11:58.810Z,98101.20
2022-09-15T22:14:56.216Z,98090.40
2022-09-15T22:17:53.652Z,98086.00
2022-09-15T22:20:52.531Z,98077.40
2022-09-15T22:23:49.966Z,98085.40
2022-09-15T22:26:47.405Z,98105.00
2022-09-15T22:29:44.813Z,98113.60
2022-09-15T22:32:42.270Z,98116.80
2022-09-15T22:35:39.710Z,98128.20
2022-09-15T22:38:37.148Z,98120.80
2022-09-15T22:41:34.590Z,98132.00
2022-09-15T22:44:32.029Z,98140.00
2022-09-15T22:47:29.472Z,98145.00
2022-09-15T22:50:26.914Z,98150.20
2022-09-15T22:53:24.402Z,98143.00
2022-09-15T22:56:21.800Z,98150.40
2022-09-15T22:59:19.232Z,98156.20
2022-09-15T23:02:16.730Z,98158.40
2022-09-15T23:05:14.211Z,98165.40
2022-09-15T23:08:12.130Z,98171.80
2022-09-15T23:11:09.532Z,98172.60
2022-09-15T23:14:07.304Z,98178.00
2022-09-15T23:17:04.730Z,98182.80
2022-09-15T23:20:02.160Z,98187.00
2022-09-15T23:23:00.299Z,98185.20
2022-09-15T23:25:57.712Z,98186.00
2022-09-15T23:28:55.186Z,98188.00
2022-09-15T23:31:52.678Z,98189.20
2022-09-15T23:34:50.163Z,98186.20
2022-09-15T23:37:47.602Z,98186.40
2022-09-15T23:40:45.038Z,98186.80
2022-09-15T23:43:42.552Z,98189.40
2022-09-15T23:46:40.725Z,98190.20
2022-09-15T23:49:38.998Z,98198.40
2022-09-15T23:52:36.444Z,98206.60
2022-09-15T23:55:34.552Z,98213.40
2022-09-15T23:58:32.018Z,98208.40
